KMIB/MIB METAR and TAF weather

Enter ICAO airport designator
Station Type Date Time Source
KMIB METAR 2020/09/20 06:56 UTC NOAA

KMIB 200656Z AUTO 18005KT 10SM CLR 15/12 A2976 RMK AO2 SLP079 T01530119 $


Station Type Date Time Source
KMIB Decoded METAR 2020/09/20 06:56 UTC NOAA

Minot Air Force Base, ND, United States (KMIB) 48-25N 101-21W
Sep 20, 2020 - 02:56 AM EDT / 2020.09.20 0656 UTC
Wind: from the S (180 degrees) at 6 MPH (5 KT):0
Visibility: 10 mile(s):0
Sky conditions: clear
Temperature: 59.5 F (15.3 C)
Dew Point: 53.4 F (11.9 C)
Relative Humidity: 80%
Pressure (altimeter): 29.76 in. Hg (1007 hPa)
ob: KMIB 200656Z AUTO 18005KT 10SM CLR 15/12 A2976 RMK AO2 SLP079 T01530119
cycle: 7

Station Type Date Time Source
KMIB TAF 2020/09/18 22:21 UTC NOAA

TAF
AMD KMIB 182210Z 1822/1923 20012G18KT 9999 FEW080 QNH3004INS
BECMG 1822/1823 VRB06KT 9999 FEW100 QNH2991INS
BECMG 1917/1918 12010G15KT 9999 FEW100 QNH2980INS TX25/1823Z TN08/1911Z LAST NO
AMDS AFT 1823 NEXT 2109

Example: see airport list